Time;durP1;ratioP1;P1;durP2;ratioP2;P2;SDS_P1;SDS_P2;PMS_P1;PMS_P2;Temp;Humidity;BMP_temperature;BMP_pressure;BME280_temperature;BME280_humidity;BME280_pressure;Samples;Min_cycle;Max_cycle;Signal;HPM_P1;HPM_P2
2023/04/06 00:00:33;;;;;;;12.77;7.90;;;5.10;99.90;;;;;;5156267;27;20911;-69
2023/04/06 00:03:00;;;;;;;9.80;7.87;;;5.10;99.90;;;;;;5156471;27;20458;-69
2023/04/06 00:05:27;;;;;;;9.37;8.40;;;5.00;99.90;;;;;;5156683;27;20450;-69
2023/04/06 00:07:55;;;;;;;9.47;7.97;;;5.00;99.90;;;;;;5156199;27;20895;-69
2023/04/06 00:10:22;;;;;;;9.93;8.20;;;5.00;99.90;;;;;;5156716;27;20454;-68
2023/04/06 00:12:51;;;;;;;8.90;8.10;;;5.00;99.90;;;;;;5156686;27;20832;-69
2023/04/06 00:15:18;;;;;;;8.93;7.90;;;5.00;99.90;;;;;;5157271;27;20739;-69
2023/04/06 00:17:45;;;;;;;8.80;7.37;;;5.00;99.90;;;;;;5156429;27;20518;-69
2023/04/06 00:20:12;;;;;;;11.73;8.20;;;5.00;99.90;;;;;;5156174;27;20451;-69
2023/04/06 00:22:39;;;;;;;9.20;7.17;;;5.00;99.90;;;;;;5156166;27;20447;-68
2023/04/06 00:25:07;;;;;;;9.07;7.80;;;4.90;99.90;;;;;;5156153;27;20498;-69
2023/04/06 00:27:34;;;;;;;8.60;7.73;;;4.90;99.90;;;;;;5156217;27;20529;-69
2023/04/06 00:30:02;;;;;;;8.37;7.50;;;4.90;99.90;;;;;;5156289;27;20833;-69
2023/04/06 00:32:29;;;;;;;9.43;7.00;;;4.90;99.90;;;;;;5156259;27;20530;-69
2023/04/06 00:34:56;;;;;;;8.43;6.93;;;5.00;99.90;;;;;;5156017;27;20514;-69
2023/04/06 00:37:23;;;;;;;7.73;6.70;;;5.00;99.90;;;;;;5156113;27;20451;-69
2023/04/06 00:39:52;;;;;;;8.70;7.43;;;5.00;99.90;;;;;;5156520;27;20501;-70
2023/04/06 00:42:24;;;;;;;8.20;6.20;;;5.00;99.90;;;;;;5156799;27;20460;-69
2023/04/06 00:44:51;;;;;;;7.77;6.20;;;5.10;99.90;;;;;;5157057;27;20795;-70
2023/04/06 00:47:20;;;;;;;7.43;6.37;;;5.00;99.90;;;;;;5157769;27;20451;-70
2023/04/06 00:49:47;;;;;;;7.00;5.90;;;5.00;99.90;;;;;;5156254;27;20450;-68
2023/04/06 00:52:14;;;;;;;7.73;5.80;;;5.00;99.90;;;;;;5156016;27;20512;-69
2023/04/06 00:54:41;;;;;;;10.30;5.73;;;5.00;99.90;;;;;;5156236;27;20447;-69
2023/04/06 00:57:08;;;;;;;9.50;6.33;;;5.00;99.90;;;;;;5155954;27;20482;-69
2023/04/06 00:59:35;;;;;;;8.80;5.27;;;5.00;99.90;;;;;;5155867;27;20483;-69
2023/04/06 01:02:02;;;;;;;7.43;5.97;;;5.10;99.90;;;;;;5155904;27;20450;-69
2023/04/06 01:04:31;;;;;;;7.10;5.80;;;5.00;99.90;;;;;;5156231;27;20849;-68
2023/04/06 01:06:58;;;;;;;6.10;5.50;;;5.00;99.90;;;;;;5155899;27;20515;-68
2023/04/06 01:09:25;;;;;;;6.77;5.10;;;5.00;99.90;;;;;;5155859;27;20982;-68
2023/04/06 01:11:52;;;;;;;8.70;5.57;;;5.00;99.90;;;;;;5157189;27;20455;-67
2023/04/06 01:14:19;;;;;;;5.93;5.10;;;4.90;99.90;;;;;;5160634;27;20478;-69
2023/04/06 01:16:45;;;;;;;6.33;5.33;;;5.00;99.90;;;;;;5160204;27;20447;-69
2023/04/06 01:19:13;;;;;;;10.07;6.13;;;4.90;99.90;;;;;;5159775;27;20455;-69
2023/04/06 01:21:42;;;;;;;7.73;4.50;;;4.90;99.90;;;;;;5159878;27;20507;-69
2023/04/06 01:24:10;;;;;;;6.40;5.40;;;4.90;99.90;;;;;;5159200;27;20527;-69
2023/04/06 01:26:39;;;;;;;8.93;4.87;;;4.90;99.90;;;;;;5159630;27;20454;-69
2023/04/06 01:29:06;;;;;;;6.77;5.50;;;4.90;99.90;;;;;;5160340;27;20566;-69
2023/04/06 01:31:33;;;;;;;5.57;4.93;;;4.90;99.90;;;;;;5159003;27;20466;-70
2023/04/06 01:33:59;;;;;;;9.60;5.50;;;4.80;99.90;;;;;;5158971;27;20930;-68
2023/04/06 01:36:26;;;;;;;9.10;5.60;;;4.80;99.90;;;;;;5159257;27;20451;-69
2023/04/06 01:38:53;;;;;;;6.83;5.80;;;4.90;99.90;;;;;;5158958;27;20541;-70
2023/04/06 01:41:22;;;;;;;8.13;6.50;;;4.80;99.90;;;;;;5159087;27;20910;-69
2023/04/06 01:43:49;;;;;;;8.10;5.80;;;4.80;99.90;;;;;;5159083;27;20470;-69
2023/04/06 01:46:16;;;;;;;8.77;6.33;;;4.80;99.90;;;;;;5159015;27;20451;-69
2023/04/06 01:48:43;;;;;;;7.47;5.37;;;4.80;99.90;;;;;;5159053;27;20497;-70
2023/04/06 01:51:10;;;;;;;6.63;5.50;;;4.80;99.90;;;;;;5158738;27;20519;-70
2023/04/06 01:53:37;;;;;;;6.63;5.63;;;4.80;99.90;;;;;;5158606;27;20519;-69
2023/04/06 01:56:05;;;;;;;7.47;5.43;;;4.80;99.90;;;;;;5159103;27;20451;-69
2023/04/06 01:58:33;;;;;;;8.80;5.83;;;4.90;99.90;;;;;;5159314;27;20479;-69
2023/04/06 02:01:00;;;;;;;5.90;4.73;;;4.80;99.90;;;;;;5159052;27;20497;-69
2023/04/06 02:03:27;;;;;;;7.57;5.87;;;4.70;99.90;;;;;;5159163;27;20489;-69
2023/04/06 02:05:54;;;;;;;6.83;5.67;;;4.70;99.90;;;;;;5158995;27;20459;-69
2023/04/06 02:08:21;;;;;;;6.00;5.40;;;4.70;99.90;;;;;;5158384;27;20455;-69
2023/04/06 02:10:48;;;;;;;6.63;5.70;;;4.60;99.90;;;;;;5159442;27;20514;-68
2023/04/06 02:13:15;;;;;;;8.83;5.77;;;4.60;99.90;;;;;;5158235;27;20486;-69
2023/04/06 02:15:43;;;;;;;6.13;5.57;;;4.60;99.90;;;;;;5158221;27;20483;-69
2023/04/06 02:18:10;;;;;;;8.10;6.30;;;4.50;99.90;;;;;;5158137;27;20490;-69
2023/04/06 02:20:37;;;;;;;6.73;5.57;;;4.50;99.90;;;;;;5158421;27;20457;-68
2023/04/06 02:23:04;;;;;;;7.23;5.43;;;4.50;99.90;;;;;;5157920;27;20451;-69
2023/04/06 02:25:31;;;;;;;7.20;5.97;;;4.40;99.90;;;;;;5158314;27;20525;-68
2023/04/06 02:27:58;;;;;;;12.13;6.00;;;4.40;99.90;;;;;;5157986;27;20515;-68
2023/04/06 02:30:25;;;;;;;6.83;5.50;;;4.40;99.90;;;;;;5158774;27;20482;-69
2023/04/06 02:32:53;;;;;;;5.77;5.20;;;4.40;99.90;;;;;;5158253;27;20923;-68
2023/04/06 02:35:20;;;;;;;6.00;5.40;;;4.40;99.90;;;;;;5158177;27;20482;-69
2023/04/06 02:37:47;;;;;;;6.30;5.70;;;4.40;99.90;;;;;;5157767;27;20494;-69
2023/04/06 02:40:15;;;;;;;6.00;5.40;;;4.40;99.90;;;;;;5157848;27;20526;-69
2023/04/06 02:42:42;;;;;;;6.20;5.47;;;4.40;99.90;;;;;;5158282;27;20787;-68
2023/04/06 02:45:09;;;;;;;7.50;5.63;;;4.40;99.90;;;;;;5157431;27;20479;-68
2023/04/06 02:47:36;;;;;;;6.77;5.40;;;4.40;99.90;;;;;;5157455;27;20505;-68
2023/04/06 02:50:05;;;;;;;6.60;6.00;;;4.30;99.90;;;;;;5158405;27;20458;-68
2023/04/06 02:52:33;;;;;;;8.50;6.47;;;4.30;99.90;;;;;;5157997;27;20519;-69
2023/04/06 02:55:00;;;;;;;6.60;5.90;;;4.30;99.90;;;;;;5157493;27;20451;-69
2023/04/06 02:57:27;;;;;;;6.23;5.40;;;4.20;99.90;;;;;;5157686;27;20459;-68
2023/04/06 02:59:53;;;;;;;7.53;6.33;;;4.20;99.90;;;;;;5157159;27;20450;-69
2023/04/06 03:02:20;;;;;;;6.70;5.60;;;4.20;99.90;;;;;;5157253;27;20493;-68
2023/04/06 03:04:48;;;;;;;8.37;6.80;;;4.10;99.90;;;;;;5157093;27;20474;-68
2023/04/06 03:07:16;;;;;;;12.33;6.80;;;4.10;99.90;;;;;;5157004;27;20458;-68
2023/04/06 03:09:43;;;;;;;7.33;6.23;;;4.00;99.90;;;;;;5157011;27;20483;-69
2023/04/06 03:12:10;;;;;;;8.67;7.03;;;4.10;99.90;;;;;;5157281;27;20815;-70
2023/04/06 03:14:37;;;;;;;9.20;6.73;;;4.00;99.90;;;;;;5157176;27;20510;-70
2023/04/06 03:17:04;;;;;;;7.17;6.47;;;4.10;99.90;;;;;;5157685;27;20455;-68
2023/04/06 03:19:31;;;;;;;9.63;6.80;;;4.00;99.90;;;;;;5157265;27;20459;-69
2023/04/06 03:21:58;;;;;;;11.93;7.33;;;4.00;99.90;;;;;;5157108;27;20461;-69
2023/04/06 03:24:26;;;;;;;9.67;6.90;;;4.10;99.90;;;;;;5157024;27;20810;-69
2023/04/06 03:26:53;;;;;;;8.40;7.10;;;4.20;99.90;;;;;;5157063;27;20596;-69
2023/04/06 03:29:20;;;;;;;9.00;7.63;;;4.20;99.90;;;;;;5156733;27;20551;-69
2023/04/06 03:31:47;;;;;;;9.63;7.23;;;4.00;99.90;;;;;;5156992;27;20485;-69
2023/04/06 03:34:14;;;;;;;9.60;7.57;;;4.00;99.90;;;;;;5157087;27;20941;-69
2023/04/06 03:36:41;;;;;;;10.47;7.90;;;4.00;99.90;;;;;;5155981;27;20486;-70
2023/04/06 03:39:08;;;;;;;11.23;9.03;;;3.90;99.90;;;;;;5157333;27;20919;-68
2023/04/06 03:41:37;;;;;;;10.40;8.70;;;3.80;99.90;;;;;;5156741;27;20515;-69
2023/04/06 03:44:04;;;;;;;12.10;8.77;;;3.70;99.90;;;;;;5156225;27;20521;-68
2023/04/06 03:46:31;;;;;;;11.50;9.50;;;3.70;99.90;;;;;;5156717;27;20450;-69
2023/04/06 03:48:58;;;;;;;11.30;9.67;;;3.70;99.90;;;;;;5156711;27;20455;-68
2023/04/06 03:51:25;;;;;;;10.80;9.70;;;3.60;99.90;;;;;;5156579;27;20454;-69
2023/04/06 03:53:52;;;;;;;11.40;8.93;;;3.70;99.90;;;;;;5156214;27;20501;-69
2023/04/06 03:56:19;;;;;;;14.47;10.20;;;3.60;99.90;;;;;;5156503;27;20832;-68
2023/04/06 03:58:50;;;;;;;10.53;9.43;;;3.50;99.90;;;;;;5156029;27;20483;-69
2023/04/06 04:01:17;;;;;;;13.53;10.97;;;3.50;99.90;;;;;;5156111;27;20471;-70
2023/04/06 04:03:44;;;;;;;13.00;10.87;;;3.40;99.90;;;;;;5156376;27;20478;-68
2023/04/06 04:06:11;;;;;;;11.97;10.27;;;3.40;99.90;;;;;;5155922;27;20565;-69
2023/04/06 04:08:38;;;;;;;12.40;11.10;;;3.30;99.90;;;;;;5156344;27;20482;-68
2023/04/06 04:11:05;;;;;;;11.57;10.40;;;3.30;99.90;;;;;;5156699;27;20455;-69
2023/04/06 04:13:32;;;;;;;14.60;10.37;;;3.20;99.90;;;;;;5156210;27;20516;-69
2023/04/06 04:16:00;;;;;;;10.90;9.80;;;3.20;99.90;;;;;;5156004;27;20450;-69
2023/04/06 04:18:27;;;;;;;13.60;11.43;;;3.10;99.90;;;;;;5156134;27;20458;-69
2023/04/06 04:20:54;;;;;;;11.07;9.70;;;3.10;99.90;;;;;;5155899;27;20907;-68
2023/04/06 04:23:21;;;;;;;12.17;10.97;;;3.20;99.90;;;;;;5155780;27;20455;-68
2023/04/06 04:25:48;;;;;;;15.73;11.07;;;3.20;99.90;;;;;;5156587;27;20506;-68
2023/04/06 04:28:15;;;;;;;17.47;11.40;;;3.10;99.90;;;;;;5156070;27;20486;-69
2023/04/06 04:30:42;;;;;;;13.10;10.40;;;3.10;99.90;;;;;;5155858;27;20454;-69
2023/04/06 04:33:10;;;;;;;13.70;10.60;;;3.10;99.90;;;;;;5155928;27;20511;-69
2023/04/06 04:35:37;;;;;;;12.03;10.70;;;3.10;99.90;;;;;;5156295;27;20455;-70
2023/04/06 04:38:05;;;;;;;16.13;10.23;;;3.10;99.90;;;;;;5155703;27;20554;-69
2023/04/06 04:40:31;;;;;;;11.40;10.30;;;3.10;99.90;;;;;;5156330;27;20461;-68
2023/04/06 04:42:58;;;;;;;16.13;10.63;;;3.20;99.90;;;;;;5156050;27;20858;-68
2023/04/06 04:45:25;;;;;;;10.80;9.70;;;3.20;99.90;;;;;;5157654;27;20934;-69
2023/04/06 04:47:52;;;;;;;12.63;11.17;;;3.10;99.90;;;;;;5159445;27;20554;-69
2023/04/06 04:50:21;;;;;;;14.30;10.83;;;3.10;99.90;;;;;;5160120;27;20526;-69
2023/04/06 04:52:48;;;;;;;13.70;10.87;;;3.10;99.90;;;;;;5160455;27;20486;-68
2023/04/06 04:55:15;;;;;;;12.43;9.73;;;3.10;99.90;;;;;;5160188;27;20451;-69
2023/04/06 04:57:42;;;;;;;11.80;10.70;;;3.10;99.90;;;;;;5160015;27;20454;-69
2023/04/06 05:00:09;;;;;;;12.60;10.73;;;3.00;99.90;;;;;;5160128;27;20439;-69
2023/04/06 05:02:36;;;;;;;17.90;11.10;;;3.00;99.90;;;;;;5159785;27;20455;-69
2023/04/06 05:05:04;;;;;;;14.73;11.13;;;3.00;99.90;;;;;;5159822;27;20470;-68
2023/04/06 05:07:32;;;;;;;15.40;10.87;;;3.00;99.90;;;;;;5160186;27;20542;-70
2023/04/06 05:09:59;;;;;;;11.60;10.20;;;3.00;99.90;;;;;;5159650;27;20454;-68
2023/04/06 05:12:26;;;;;;;14.53;11.17;;;3.00;99.90;;;;;;5159781;27;20514;-68
2023/04/06 05:14:54;;;;;;;13.00;11.13;;;3.10;99.90;;;;;;5159890;27;20461;-70
2023/04/06 05:17:21;;;;;;;14.73;10.67;;;3.10;99.90;;;;;;5159744;27;20492;-69
2023/04/06 05:19:48;;;;;;;14.17;11.67;;;3.10;99.90;;;;;;5159673;27;20902;-69
2023/04/06 05:22:17;;;;;;;15.43;11.13;;;3.10;99.90;;;;;;5159400;27;20490;-68
2023/04/06 05:24:45;;;;;;;18.83;12.30;;;3.00;99.90;;;;;;5159212;27;20942;-68
2023/04/06 05:27:12;;;;;;;12.93;11.20;;;3.10;99.90;;;;;;5159574;27;20462;-69
2023/04/06 05:29:39;;;;;;;17.33;11.70;;;3.10;99.90;;;;;;5159300;27;20482;-69
2023/04/06 05:32:07;;;;;;;12.83;11.53;;;3.10;99.90;;;;;;5159447;27;20510;-69
2023/04/06 05:34:34;;;;;;;14.03;12.43;;;3.10;99.90;;;;;;5158978;27;20457;-69
2023/04/06 05:37:01;;;;;;;13.13;11.83;;;3.10;99.90;;;;;;5159313;27;20450;-69
2023/04/06 05:39:28;;;;;;;11.33;10.20;;;3.10;99.90;;;;;;5158943;27;20485;-68
2023/04/06 05:41:56;;;;;;;12.63;11.30;;;3.10;99.90;;;;;;5159068;27;20493;-69
2023/04/06 05:44:23;;;;;;;13.30;11.30;;;3.30;99.90;;;;;;5159247;27;20450;-69
2023/04/06 05:46:50;;;;;;;14.23;12.07;;;3.20;99.90;;;;;;5159483;27;20853;-68
2023/04/06 05:49:17;;;;;;;14.40;12.03;;;3.30;99.90;;;;;;5158638;27;20488;-68
2023/04/06 05:51:44;;;;;;;17.87;12.03;;;3.30;99.90;;;;;;5158699;27;20455;-68
2023/04/06 05:54:11;;;;;;;12.67;11.10;;;3.30;99.90;;;;;;5158625;27;20454;-68
2023/04/06 05:56:38;;;;;;;13.53;11.77;;;3.40;99.90;;;;;;5158984;27;20447;-68
2023/04/06 05:59:06;;;;;;;12.57;11.13;;;3.40;99.90;;;;;;5157834;27;20808;-68
2023/04/06 06:01:34;;;;;;;12.90;10.80;;;3.40;99.90;;;;;;5158810;27;20491;-68
2023/04/06 06:04:01;;;;;;;15.53;10.80;;;3.40;99.90;;;;;;5158650;27;20454;-68
2023/04/06 06:06:29;;;;;;;12.07;10.87;;;3.40;99.90;;;;;;5158759;27;20860;-68
2023/04/06 06:08:58;;;;;;;12.00;10.47;;;3.50;99.90;;;;;;5158615;27;20458;-68
2023/04/06 06:11:25;;;;;;;11.20;10.20;;;3.50;99.90;;;;;;5158282;27;20461;-69
2023/04/06 06:13:52;;;;;;;12.77;10.73;;;3.60;99.90;;;;;;5158155;27;20457;-68
2023/04/06 06:16:21;;;;;;;12.80;10.47;;;3.60;99.90;;;;;;5158457;27;20473;-69
2023/04/06 06:18:48;;;;;;;11.40;10.20;;;3.70;99.90;;;;;;5158409;27;20455;-68
2023/04/06 06:21:16;;;;;;;11.80;9.97;;;3.70;99.90;;;;;;5158110;27;20447;-69
2023/04/06 06:23:43;;;;;;;11.20;10.10;;;3.80;99.90;;;;;;5158131;27;20450;-68
2023/04/06 06:26:10;;;;;;;11.53;10.17;;;3.90;99.90;;;;;;5158238;27;20807;-68
2023/04/06 06:28:37;;;;;;;11.17;9.97;;;4.00;99.90;;;;;;5158119;27;20463;-69
2023/04/06 06:31:04;;;;;;;13.23;9.87;;;4.00;99.90;;;;;;5158110;27;20523;-69
2023/04/06 06:33:33;;;;;;;11.57;10.20;;;4.00;99.90;;;;;;5158107;27;20782;-69
2023/04/06 06:36:00;;;;;;;15.27;10.07;;;4.10;99.90;;;;;;5157604;27;20918;-69
2023/04/06 06:38:27;;;;;;;12.30;9.07;;;4.20;99.90;;;;;;5158057;27;20963;-69
2023/04/06 06:40:54;;;;;;;11.13;9.80;;;4.30;99.90;;;;;;5157942;27;20581;-68
2023/04/06 06:43:21;;;;;;;15.23;9.73;;;4.40;99.90;;;;;;5158055;27;20790;-68
2023/04/06 06:45:48;;;;;;;16.03;10.30;;;4.40;99.90;;;;;;5157613;27;20528;-69
2023/04/06 06:48:15;;;;;;;11.50;10.40;;;4.50;99.90;;;;;;5157581;27;20459;-69
2023/04/06 06:50:43;;;;;;;11.03;9.37;;;4.40;99.90;;;;;;5157272;27;20450;-69
2023/04/06 06:53:11;;;;;;;10.97;9.83;;;4.50;99.90;;;;;;5157742;27;20902;-69
2023/04/06 06:55:38;;;;;;;11.87;9.73;;;4.60;99.90;;;;;;5157727;27;20451;-69
2023/04/06 06:58:05;;;;;;;11.60;10.40;;;4.70;99.90;;;;;;5157034;27;20518;-69
2023/04/06 07:00:32;;;;;;;11.20;8.77;;;5.00;99.90;;;;;;5157661;27;20537;-69
2023/04/06 07:02:59;;;;;;;11.80;8.47;;;5.10;99.90;;;;;;5157463;27;20454;-69
2023/04/06 07:05:26;;;;;;;10.63;8.20;;;5.10;99.90;;;;;;5157317;27;20475;-69
2023/04/06 07:07:55;;;;;;;11.93;8.97;;;5.10;99.90;;;;;;5157131;27;20450;-70
2023/04/06 07:10:22;;;;;;;10.33;9.20;;;5.20;99.90;;;;;;5156923;27;20511;-69
2023/04/06 07:12:49;;;;;;;10.60;8.27;;;5.20;99.90;;;;;;5156968;27;20503;-69
2023/04/06 07:15:16;;;;;;;11.80;7.83;;;5.20;99.90;;;;;;5157086;27;20451;-69
2023/04/06 07:17:44;;;;;;;9.40;8.27;;;5.20;99.90;;;;;;5157908;27;20487;-69
2023/04/06 07:20:12;;;;;;;9.80;8.20;;;5.30;99.90;;;;;;5157456;27;20469;-69
2023/04/06 07:22:39;;;;;;;16.93;8.33;;;5.30;99.90;;;;;;5157050;27;20493;-69
2023/04/06 07:25:09;;;;;;;11.80;8.53;;;5.40;99.90;;;;;;5156849;27;20542;-69
2023/04/06 07:27:36;;;;;;;10.40;8.57;;;5.50;99.90;;;;;;5157286;27;20442;-69
2023/04/06 07:30:03;;;;;;;12.33;8.83;;;5.60;99.90;;;;;;5157000;27;20515;-69
2023/04/06 07:32:30;;;;;;;8.70;7.77;;;5.70;99.90;;;;;;5156793;27;20507;-69
2023/04/06 07:34:57;;;;;;;13.17;7.03;;;5.70;99.90;;;;;;5156923;27;20446;-69
2023/04/06 07:37:24;;;;;;;9.50;7.67;;;5.70;99.90;;;;;;5156959;27;20461;-69
2023/04/06 07:39:51;;;;;;;16.50;11.40;;;5.70;99.90;;;;;;5156611;27;21040;-68
2023/04/06 07:42:20;;;;;;;7.20;6.50;;;5.80;99.90;;;;;;5156749;27;20447;-69
2023/04/06 07:44:47;;;;;;;10.53;6.73;;;5.80;99.90;;;;;;5156489;27;20507;-68
2023/04/06 07:47:14;;;;;;;9.80;7.77;;;5.80;99.90;;;;;;5156543;27;20478;-69
2023/04/06 07:49:41;;;;;;;12.33;7.43;;;6.00;99.90;;;;;;5156520;27;20455;-70
2023/04/06 07:52:08;;;;;;;14.63;7.47;;;6.20;99.90;;;;;;5156135;27;20493;-69
2023/04/06 07:54:35;;;;;;;6.00;5.40;;;6.30;99.90;;;;;;5156992;27;20802;-68
2023/04/06 07:57:02;;;;;;;7.40;6.60;;;6.30;99.90;;;;;;5156662;27;20455;-68
2023/04/06 07:59:30;;;;;;;7.83;6.33;;;6.40;99.90;;;;;;5155842;27;20478;-69
2023/04/06 08:01:57;;;;;;;9.17;6.97;;;6.50;99.90;;;;;;5156079;27;20489;-69
2023/04/06 08:04:24;;;;;;;9.57;7.30;;;6.70;99.90;;;;;;5156018;27;20447;-69
2023/04/06 08:06:51;;;;;;;8.23;6.00;;;6.70;99.90;;;;;;5155947;27;20554;-69
2023/04/06 08:09:18;;;;;;;6.93;6.23;;;6.80;99.90;;;;;;5155682;27;20454;-69
2023/04/06 08:11:46;;;;;;;15.97;6.20;;;6.90;99.90;;;;;;5156118;27;20538;-69
2023/04/06 08:14:12;;;;;;;8.00;6.17;;;6.90;99.90;;;;;;5156059;27;20451;-69
2023/04/06 08:16:41;;;;;;;6.13;5.53;;;6.80;99.90;;;;;;5156534;27;20769;-69
2023/04/06 08:19:09;;;;;;;6.37;5.73;;;6.90;99.90;;;;;;5155653;27;20867;-69
2023/04/06 08:21:36;;;;;;;8.90;5.57;;;6.90;99.90;;;;;;5155121;27;20455;-69
2023/04/06 08:24:03;;;;;;;7.50;5.40;;;7.00;99.90;;;;;;5156034;27;20497;-69
2023/04/06 08:26:30;;;;;;;9.63;5.40;;;7.00;99.90;;;;;;5155768;27;20474;-69
2023/04/06 08:28:57;;;;;;;7.13;4.93;;;7.10;99.90;;;;;;5155538;27;20511;-68
2023/04/06 08:31:24;;;;;;;7.20;5.63;;;7.10;99.90;;;;;;5155974;27;20450;-69
2023/04/06 08:33:52;;;;;;;6.87;4.90;;;7.20;99.90;;;;;;5155950;27;20450;-69
2023/04/06 08:36:22;;;;;;;4.87;4.47;;;7.20;99.90;;;;;;5155672;27;20506;-69
2023/04/06 08:38:50;;;;;;;5.00;4.40;;;7.20;99.90;;;;;;5155491;27;20542;-69
2023/04/06 08:41:17;;;;;;;5.90;4.10;;;7.30;99.90;;;;;;5155827;27;20795;-69
2023/04/06 08:43:47;;;;;;;4.63;4.03;;;7.40;99.90;;;;;;5155682;27;20549;-69
2023/04/06 08:46:15;;;;;;;8.90;4.13;;;7.40;99.90;;;;;;5155950;27;20880;-69
2023/04/06 08:48:43;;;;;;;5.63;4.30;;;7.40;99.90;;;;;;5156388;27;20990;-71
2023/04/06 08:51:11;;;;;;;4.43;4.03;;;7.50;99.90;;;;;;5156768;27;20518;-73
2023/04/06 08:53:38;;;;;;;4.00;3.70;;;7.50;99.90;;;;;;5155648;27;20491;-71
2023/04/06 08:56:06;;;;;;;5.90;3.50;;;7.60;99.90;;;;;;5156720;27;20513;-71
2023/04/06 08:58:36;;;;;;;4.53;3.37;;;7.60;99.90;;;;;;5156817;27;20530;-72
2023/04/06 09:01:07;;;;;;;9.60;3.93;;;7.70;99.90;;;;;;5160146;27;20450;-71
2023/04/06 09:03:38;;;;;;;6.00;4.00;;;7.80;99.90;;;;;;5159363;27;20453;-71
2023/04/06 09:06:05;;;;;;;6.37;3.50;;;7.90;99.90;;;;;;5158902;27;20482;-71
2023/04/06 09:08:34;;;;;;;3.57;3.10;;;7.90;98.90;;;;;;5160060;27;20523;-71
2023/04/06 09:11:01;;;;;;;3.30;3.00;;;7.80;95.80;;;;;;5160280;27;20566;-72
2023/04/06 09:13:29;;;;;;;4.23;3.20;;;7.80;95.20;;;;;;5160384;27;20491;-71
2023/04/06 09:16:03;;;;;;;3.67;3.37;;;7.80;95.20;;;;;;5159162;27;20446;-71
2023/04/06 09:18:31;;;;;;;3.53;3.23;;;7.90;96.50;;;;;;5159645;27;20449;-71
2023/04/06 09:21:00;;;;;;;3.57;3.23;;;8.00;95.00;;;;;;5161022;27;20550;-70
2023/04/06 09:23:27;;;;;;;5.60;3.27;;;8.00;95.60;;;;;;5158819;27;20515;-72
2023/04/06 09:26:08;;;;;;;5.03;3.10;;;8.20;96.20;;;;;;5157867;27;20522;-70
2023/04/06 09:28:46;;;;;;;6.10;3.83;;;8.30;93.30;;;;;;5157714;27;20843;-71
2023/04/06 09:31:14;;;;;;;5.83;3.50;;;8.30;92.80;;;;;;5158826;27;20452;-70
2023/04/06 09:33:43;;;;;;;3.50;2.47;;;8.30;91.20;;;;;;5160591;27;20479;-71
2023/04/06 09:36:10;;;;;;;3.93;2.90;;;8.40;87.40;;;;;;5162562;27;20826;-71
2023/04/06 09:38:51;;;;;;;3.80;2.60;;;8.40;89.10;;;;;;5163173;27;20455;-71
2023/04/06 09:41:24;;;;;;;4.20;2.73;;;8.50;85.10;;;;;;5162192;27;20435;-70
2023/04/06 09:43:51;;;;;;;5.70;3.97;;;8.50;82.00;;;;;;5162299;27;20439;-71
2023/04/06 09:46:21;;;;;;;4.90;3.27;;;8.60;80.70;;;;;;5162536;27;20591;-72
2023/04/06 09:48:49;;;;;;;4.50;3.00;;;8.60;81.00;;;;;;5162157;27;20434;-71
2023/04/06 09:51:19;;;;;;;5.70;3.40;;;8.60;79.50;;;;;;5162037;27;20451;-71
2023/04/06 09:53:50;;;;;;;3.37;2.90;;;8.70;79.80;;;;;;5163335;27;20451;-71
2023/04/06 09:56:21;;;;;;;2.80;2.50;;;8.80;74.90;;;;;;5164395;27;20466;-71
2023/04/06 09:58:54;;;;;;;3.00;2.70;;;8.80;76.70;;;;;;5163181;27;20530;-70
2023/04/06 10:01:23;;;;;;;2.90;2.70;;;9.00;76.60;;;;;;5161133;27;20845;-72
2023/04/06 10:03:57;;;;;;;8.50;2.47;;;9.10;75.40;;;;;;5161470;27;20455;-71
2023/04/06 10:06:26;;;;;;;4.07;2.50;;;9.20;67.50;;;;;;5162376;27;20503;-71
2023/04/06 10:08:54;;;;;;;2.63;2.43;;;9.30;63.30;;;;;;5161226;27;20621;-70
2023/04/06 10:11:21;;;;;;;2.93;2.40;;;9.30;67.60;;;;;;5161070;27;20455;-70
2023/04/06 10:13:50;;;;;;;5.37;2.67;;;9.30;61.40;;;;;;5161005;27;20503;-71
2023/04/06 10:16:18;;;;;;;2.30;1.87;;;9.40;56.30;;;;;;5161182;27;20454;-72
2023/04/06 10:18:50;;;;;;;3.50;2.30;;;9.40;55.10;;;;;;5161571;27;20903;-72
2023/04/06 10:21:21;;;;;;;4.37;2.67;;;9.30;54.60;;;;;;5162301;27;20439;-71
2023/04/06 10:23:51;;;;;;;2.87;2.57;;;9.30;55.50;;;;;;5162496;27;20439;-70
2023/04/06 10:26:20;;;;;;;3.07;2.40;;;9.40;57.00;;;;;;5161978;27;20438;-72
2023/04/06 10:28:50;;;;;;;2.90;2.50;;;9.50;57.00;;;;;;5162630;27;20484;-72
2023/04/06 10:31:25;;;;;;;2.63;2.20;;;9.70;55.80;;;;;;5162808;27;20522;-71
2023/04/06 10:33:56;;;;;;;5.20;2.47;;;9.80;55.00;;;;;;5162718;27;20439;-72
2023/04/06 10:36:25;;;;;;;3.33;1.90;;;9.90;54.60;;;;;;5161940;27;20909;-72
2023/04/06 10:38:57;;;;;;;3.87;2.43;;;10.10;53.10;;;;;;5161661;27;20775;-72
2023/04/06 10:41:25;;;;;;;3.50;2.47;;;10.30;53.40;;;;;;5163365;27;20469;-72
2023/04/06 10:43:58;;;;;;;2.70;2.47;;;10.40;52.30;;;;;;5161640;27;20461;-72
2023/04/06 10:46:29;;;;;;;2.70;2.50;;;10.60;50.90;;;;;;5162516;27;20508;-71
2023/04/06 10:48:57;;;;;;;3.60;2.47;;;10.80;48.70;;;;;;5161281;27;20458;-72
2023/04/06 10:51:28;;;;;;;3.20;3.00;;;10.70;45.90;;;;;;5159636;27;20803;-72
2023/04/06 10:53:55;;;;;;;2.67;2.20;;;10.70;48.20;;;;;;5159228;27;20458;-73
2023/04/06 10:56:25;;;;;;;2.30;1.80;;;10.70;45.20;;;;;;5159061;27;20511;-70
2023/04/06 10:58:55;;;;;;;3.23;2.60;;;10.60;45.30;;;;;;5159504;27;20478;-71
2023/04/06 11:01:45;;;;;;;3.90;2.30;;;10.60;45.40;;;;;;5161699;27;20446;-70
2023/04/06 11:04:16;;;;;;;4.90;2.73;;;10.70;44.30;;;;;;5159483;27;20507;-71
2023/04/06 11:06:48;;;;;;;3.70;2.33;;;10.80;45.80;;;;;;5160494;27;20498;-73
2023/04/06 11:09:26;;;;;;;2.90;2.53;;;10.70;43.10;;;;;;5161022;27;20850;-71
2023/04/06 11:11:55;;;;;;;3.27;2.40;;;10.60;45.30;;;;;;5160944;27;20506;-71
2023/04/06 11:14:23;;;;;;;3.57;2.47;;;10.70;45.20;;;;;;5162289;27;20545;-71
2023/04/06 11:16:51;;;;;;;2.60;2.40;;;10.70;44.80;;;;;;5162399;27;20446;-72
2023/04/06 11:19:19;;;;;;;2.27;1.83;;;10.70;40.60;;;;;;5161675;27;20455;-72
2023/04/06 11:21:48;;;;;;;3.70;2.37;;;10.70;41.40;;;;;;5161510;27;20450;-73
2023/04/06 11:24:17;;;;;;;2.37;2.17;;;10.80;42.10;;;;;;5160962;27;20964;-71
2023/04/06 11:26:46;;;;;;;4.10;2.10;;;11.00;44.70;;;;;;5160105;27;20527;-71
2023/04/06 11:29:14;;;;;;;3.20;2.27;;;11.70;46.10;;;;;;5160577;27;20462;-71
2023/04/06 11:31:42;;;;;;;2.90;2.30;;;12.70;41.70;;;;;;5159517;27;20459;-71
2023/04/06 11:34:17;;;;;;;6.03;2.70;;;13.20;40.40;;;;;;5159251;27;20497;-72
2023/04/06 11:36:45;;;;;;;4.40;2.47;;;13.30;37.10;;;;;;5159118;27;20438;-72
2023/04/06 11:39:13;;;;;;;2.47;2.27;;;13.30;37.20;;;;;;5160091;27;20454;-72
2023/04/06 11:41:40;;;;;;;4.37;3.03;;;13.30;35.80;;;;;;5158319;27;20459;-72
2023/04/06 11:44:07;;;;;;;4.33;2.30;;;13.40;35.70;;;;;;5160775;27;20454;-71
2023/04/06 11:46:34;;;;;;;5.10;2.47;;;13.60;35.60;;;;;;5160082;27;20510;-71
2023/04/06 11:49:02;;;;;;;7.77;3.07;;;14.10;36.20;;;;;;5160948;27;20446;-72
2023/04/06 11:51:31;;;;;;;2.47;2.17;;;14.40;33.60;;;;;;5160071;27;20522;-71
2023/04/06 11:53:58;;;;;;;3.00;2.70;;;14.30;31.00;;;;;;5158107;27;20447;-71
2023/04/06 11:56:26;;;;;;;3.23;2.43;;;15.20;32.80;;;;;;5158007;27;20519;-72
2023/04/06 11:58:55;;;;;;;2.93;2.37;;;16.40;33.40;;;;;;5158437;27;20510;-71
2023/04/06 12:01:22;;;;;;;2.73;2.33;;;17.20;27.40;;;;;;5158680;27;20451;-71
2023/04/06 12:03:49;;;;;;;2.07;1.87;;;17.60;26.80;;;;;;5159137;27;20926;-71
2023/04/06 12:06:17;;;;;;;2.97;2.20;;;18.40;26.60;;;;;;5157730;27;20458;-69
2023/04/06 12:08:45;;;;;;;3.10;2.23;;;19.50;26.40;;;;;;5156084;27;20783;-69
2023/04/06 12:11:12;;;;;;;2.90;2.70;;;20.00;23.80;;;;;;5156064;27;20537;-69
2023/04/06 12:13:39;;;;;;;3.27;2.10;;;20.50;24.60;;;;;;5156138;27;20824;-69
2023/04/06 12:16:06;;;;;;;2.90;1.97;;;20.60;19.90;;;;;;5156305;27;20478;-68
2023/04/06 12:18:33;;;;;;;3.33;2.20;;;21.00;22.80;;;;;;5155955;27;20475;-68
2023/04/06 12:21:00;;;;;;;4.93;2.47;;;21.40;20.50;;;;;;5155682;27;20513;-69
2023/04/06 12:23:27;;;;;;;2.60;2.37;;;21.30;18.30;;;;;;5156087;27;20779;-69
2023/04/06 12:25:56;;;;;;;3.43;2.40;;;21.30;19.80;;;;;;5155962;27;20502;-69
2023/04/06 12:28:26;;;;;;;4.23;2.67;;;19.90;17.30;;;;;;5156049;27;20481;-69
2023/04/06 12:30:54;;;;;;;3.90;2.40;;;19.80;19.00;;;;;;5156216;27;20511;-69
2023/04/06 12:33:21;;;;;;;2.43;2.23;;;20.10;19.00;;;;;;5155800;27;20454;-69
2023/04/06 12:35:48;;;;;;;2.70;2.03;;;21.10;20.20;;;;;;5156024;27;20450;-69
2023/04/06 12:38:15;;;;;;;3.63;2.20;;;22.20;21.50;;;;;;5156058;27;20447;-69
2023/04/06 12:40:42;;;;;;;3.50;2.80;;;23.10;18.20;;;;;;5155836;27;20458;-69
2023/04/06 12:43:12;;;;;;;2.20;1.90;;;23.50;16.80;;;;;;5156079;27;20763;-69
2023/04/06 12:45:40;;;;;;;2.30;2.10;;;24.10;16.50;;;;;;5155866;27;20465;-69
2023/04/06 12:48:07;;;;;;;6.70;2.43;;;24.80;16.20;;;;;;5155635;27;20482;-68
2023/04/06 12:50:34;;;;;;;2.77;2.13;;;25.40;14.90;;;;;;5155732;27;20454;-69
2023/04/06 12:53:01;;;;;;;4.23;2.37;;;25.60;13.90;;;;;;5155910;27;20460;-70